Aviation Digital Data Service (ADDS)

Output produced by METARs form (1554 UTC 23 April 2017)
found at http://www.aviationweather.gov/adds/metars/
 
DFOO 231500Z 26008KT 9999 FEW020 35/20 Q1011
TAF DFOO 231100Z 2312/2412 20008KT 9999 FEW020 
     TEMPO 2316/2324 4000 TSRA SCT020 FEW036CB
       
DFFD 231500Z 28006KT 220V330 CAVOK 38/18 Q1009 NOSIG
TAF DFFD 231100Z 2312/2418 22008KT 9999 FEW026 
     PROB30 
     TEMPO 2316/2322 TS FEW026 FEW040CB